LTFG Airport Information

Runway Information
Airport Frequencies
Airport Navaids
Airport Weather Information & NOTAM
ADDS - METARS form results

(2050 UTC 25 April 2019)
Data provider http://aviationweather.gov/metar/data/
 
Forecast for: LTFG (GAZIPASA , TR)
Text: TAF LTFG 251940Z 2521/2606 11005KT CAVOK
Forecast period: 2100 to 2200 UTC 25 April 2019
Forecast type: FROM: standard forecast or significant change
Winds: from the ESE (110 degrees) at 6 MPH (5 knots; 2.6 m/s)
Visibility: 6 or more miles 10+ km)
Ceiling: unknown
Clouds: missing
Weather: NSW  (no significant weather)
Text: BECMG 2522/2602 FEW035
Forecast period: 2200 UTC 25 April 2019 to 0600 UTC 26 April 2019
Forecast type: BECOMING: Conditions expected to become as follows by 0200 UTC 26 April 2019
Winds: from the ESE (110 degrees) at 6 MPH (5 knots; 2.6 m/s)
Visibility: 6 or more miles 10+ km)
Ceiling: at least 12,000 feet AGL
Clouds: few clouds at 3500 feet AGL
Weather: NSW  (no significant weather)